METAR stanice u blizini

 

LYBE - Beograd / Surčin, Srbija
Ažurirano: 23/02/2020 20:30
Vedro
Vedro
 Pravac vetra J
Vetar: J 17 km/h
Temperatura: 12°C
Tačka rose: -3°C
Vlažnost: 35%
Pritisak: 1016 hPa
Pregled: Vedro
Vidljivost: greater than 10 km
2020/02/23 19:30 LYBE 231930Z 18009KT CAVOK 12/M03 Q1016 NOSIG
LYBT - Beograd / Batajnica, Srbija
Ažurirano: 23/02/2020 20:30
Vedro
Vedro
 Pravac vetra JJI
Vetar: JJI 11 km/h
Temperatura: 9°C
Osećaj hladnoće: 7°C
Tačka rose: -1°C
Vlažnost: 50%
Pritisak: 1015 hPa
Pregled: Vedro
Vidljivost: greater than 10 km
2020/02/23 19:30 LYBT 231930Z 16006KT CAVOK 09/M01 Q1015 NOSIG
LYVR - Vršac, Srbija
Ažurirano: 23/02/2020 20:30
Vedro
Vedro
 Pravac vetra JJI
Vetar: JJI 35 km/h
Temperatura: 12°C
Tačka rose: -1°C
Vlažnost: 41%
Pritisak: 1016 hPa
Pregled: Vedro
Vidljivost: greater than 10 km
2020/02/23 19:30 LYVR 231930Z AUTO 16019KT CAVOK 12/M01 Q1016
 
LYKV - Lađevci, Srbija
Ažurirano: 23/02/2020 20:30
Vedro
Vedro
 Pravac vetra ZJZ
Vetar: ZJZ 4 km/h
Temperatura: 1°C
Tačka rose: 1°C
Vlažnost: 100%
Pritisak: 1018 hPa
Pregled: Vedro
Vidljivost: greater than 10 km
2020/02/23 19:30 LYKV 231930Z 25002KT CAVOK 01/01 Q1018 NOSIG
LYNI - Niš, Srbija
Ažurirano: 23/02/2020 20:30
Partly Cloudy
Partly Cloudy
 Pravac vetra I
Vetar: I 9 km/h
Temperatura: 6°C
Osećaj hladnoće: 4°C
Tačka rose: -1°C
Vlažnost: 61%
Pritisak: 1020 hPa
Oblaci: Partly Cloudy
Vidljivost: 8 km
2020/02/23 19:30 LYNI 231930Z 10005KT 8000 NSC 06/M01 Q1020 NOSIG
BKPR - Priština, Srbija
Ažurirano: 23/02/2020 20:30
Vedro
Vedro
 Pravac vetra varies
Vetar: varies 2 km/h
Temperatura: 4°C
Tačka rose: -3°C
Vlažnost: 61%
Pritisak: 1020 hPa
Pregled: Vedro
Vidljivost: greater than 10 km
2020/02/23 19:30 BKPR 231930Z VRB01KT CAVOK 04/M03 Q1020 NOSIG RMK 17010095
 
LHPP - Pecs / Pogany, Hungary
Ažurirano: 23/02/2020 17:45
NOT Current
Partly Cloudy
Partly Cloudy
 Pravac vetra ZJZ
Vetar: ZJZ 7 km/h
Temperatura: 10°C
Osećaj hladnoće: 9°C
Tačka rose: 0°C
Vlažnost: 50%
Pritisak: 1017 hPa
Oblaci: Partly Cloudy
Vidljivost: 10 km
Cloud details: Partly Cloudy 1311 m
Partly Cloudy 2530 m
2020/02/23 16:45 LHPP 231645Z 24004KT 9999 SCT043 SCT083 10/00 Q1017
LHUD - Szeged, Hungary
Ažurirano: 04/07/2019 01:45
NOT Current
Vedro
Vedro
 Pravac vetra S
Vetar: S 7 km/h
Temperatura: 18°C
Tačka rose: 13°C
Vlažnost: 73%
Pritisak: 1019 hPa
Pregled: Vedro
Vidljivost: greater than 10 km
2019/07/03 23:45 LHUD 032345Z 35004KT CAVOK 18/13 Q1019
LRTR - Timisoara, Romania
Ažurirano: 23/02/2020 20:30
Vedro
Vedro
 Pravac vetra J
Vetar: J 13 km/h
Temperatura: 9°C
Osećaj hladnoće: 7°C
Tačka rose: 2°C
Vlažnost: 62%
Pritisak: 1015 hPa
Pregled: Vedro
Vidljivost: greater than 10 km
2020/02/23 19:30 LRTR 231930Z 17007KT CAVOK 09/02 Q1015 NOSIG
 
LRCV - Craiova, Romania
Ažurirano: 23/02/2020 20:30
Vedro
Vedro
 Pravac vetra Z
Vetar: Z 22 km/h
Temperatura: 11°C
Tačka rose: -1°C
Vlažnost: 44%
Pritisak: 1015 hPa
Pregled: Vedro
Vidljivost: greater than 10 km
2020/02/23 19:30 LRCV 231930Z 28012KT CAVOK 11/M01 Q1015
LBSF - Sofia, Bulgaria
Ažurirano: 23/02/2020 20:30
Partly Cloudy
Partly Cloudy
 Pravac vetra varies
Vetar: varies 4 km/h
Temperatura: 3°C
Tačka rose: -2°C
Vlažnost: 70%
Pritisak: 1019 hPa
Oblaci: Partly Cloudy
Vidljivost: 8 km
2020/02/23 19:30 LBSF 231930Z VRB02KT 8000 NSC 03/M02 Q1019 NOSIG
LWSK - Skoplje, Makedonija
Ažurirano: 23/02/2020 20:30
Vedro
Vedro
 Pravac vetra JI
Vetar: JI 4 km/h
Temperatura: 4°C
Tačka rose: -2°C
Vlažnost: 65%
Pritisak: 1021 hPa
Pregled: Vedro
Vidljivost: greater than 10 km
2020/02/23 19:30 LWSK 231930Z 13002KT CAVOK 04/M02 Q1021 NOSIG
 
LYPG - Podgorica, Crna Gora
Ažurirano: 23/02/2020 20:30
Vedro
Vedro
 Pravac vetra ZSZ
Vetar: ZSZ 2 km/h
Temperatura: 8°C
Tačka rose: 3°C
Vlažnost: 71%
Pritisak: 1024 hPa
Pregled: Vedro
Vidljivost: greater than 10 km
2020/02/23 19:30 LYPG 231930Z 29001KT CAVOK 08/03 Q1024 NOSIG
LQSA - Sarajevo, Bosna i Hercegovina
Ažurirano: 23/02/2020 20:30
Vedro
Vedro
 Pravac vetra SSZ
Vetar: SSZ 7 km/h
Temperatura: 7°C
Osećaj hladnoće: 6°C
Tačka rose: 0°C
Vlažnost: 61%
Pritisak: 1019 hPa
Pregled: Vedro
Vidljivost: greater than 10 km
2020/02/23 19:30 LQSA 231930Z 33004KT CAVOK 07/00 Q1019 NOSIG
LDOS - Osijek, Hrvatksa
Ažurirano: 23/02/2020 20:30
Vedro
Vedro
 Pravac vetra J
Vetar: J 19 km/h
Temperatura: 10°C
Osećaj hladnoće: 7°C
Tačka rose: 1°C
Vlažnost: 54%
Pritisak: 1014 hPa
Pregled: Vedro
Vidljivost: greater than 10 km
2020/02/23 19:30 LDOS 231930Z 19010KT CAVOK 10/01 Q1014